Bao An Cheng 69 — BVBD5 — position and weather

sailwx.info

Track history (hours):
 
Tides and Currents Weather Stations Pressure Air Temp Water Temp Dewpoint Dewpoint Depression Visibility Wind Speed Wind Dir Waves Ship Positions

Bao An Cheng 69

Last reported at 2014-Sep-30 11:31 UTC. Time now 2014-Sep-30 11:53 UTC.
Position N 37°38' E 122°24'.

Length 121 m; draft 4.5 m.

MMSI: 412703090.

Date/timePositionNaut miles runAvg speedWind from/ knotsBaromVisibWave heightAir tempDewpointWater temp
2014-Sep-30 11:31N 37°38' E 122°24'9 9.2
2014-Sep-30 10:32N 37°35' E 122°35'10 7.4
2014-Sep-30 09:13N 37°28' E 122°43'6 5.1
2014-Sep-30 08:07N 37°23' E 122°43'3 1.0
2014-Sep-30 05:28N 37°22' E 122°40'0 0.0
2014-Sep-29 22:28N 37°22' E 122°40'0 0.1
2014-Sep-29 20:22N 37°22' E 122°40'0 0.0
2014-Sep-29 18:22N 37°22' E 122°40'0 0.0
2014-Sep-29 17:22N 37°22' E 122°40'0 0.0
2014-Sep-29 16:22N 37°22' E 122°40'0 0.0
2014-Sep-29 15:16N 37°22' E 122°40'0 0.0
2014-Sep-29 07:10N 37°22' E 122°40'0 0.1
2014-Sep-29 06:22N 37°22' E 122°40'0 0.1
2014-Sep-29 05:28N 37°22' E 122°40'0 0.0
2014-Sep-29 00:29N 37°22' E 122°40'0 0.0
2014-Sep-28 23:16N 37°22' E 122°40'0 0.0
2014-Sep-28 22:28N 37°22' E 122°40'0 0.0
2014-Sep-28 21:28N 37°22' E 122°40'0 0.1
2014-Sep-28 20:16N 37°22' E 122°40'0 0.0
2014-Sep-28 19:22N 37°22' E 122°40'0 0.0
2014-Sep-28 18:04N 37°22' E 122°40'0 0.0
2014-Sep-28 17:16N 37°22' E 122°40'0 0.0
2014-Sep-28 16:22N 37°22' E 122°40'0 0.0
2014-Sep-28 15:10N 37°22' E 122°40'0 0.0
2014-Sep-28 14:16N 37°22' E 122°40'0 0.2
2014-Sep-28 13:16N 37°22' E 122°40'0 0.0
2014-Sep-28 12:28N 37°22' E 122°40'0 0.0
2014-Sep-28 10:20N 37°22' E 122°40'7 8.7
2014-Sep-28 09:33N 37°15' E 122°43'1110.5
2014-Sep-28 08:32N 37°05' E 122°43'9 9.3
2014-Sep-28 07:32N 36°56' E 122°40'9 8.8
2014-Sep-28 06:34N 36°48' E 122°35'9 9.1
2014-Sep-28 05:33N 36°43' E 122°25'1110.0
2014-Sep-28 04:26N 36°37' E 122°13'90 9.9
2014-Sep-27 19:17N 35°58' E 120°32'710.0
2014-Sep-27 18:33N 36°00' E 120°24'8 7.9
2014-Sep-27 17:33N 36°01' E 120°14'4 0.2
2014-Sep-26 13:32N 36°02' E 120°19'5 4.1
2014-Sep-26 12:26N 35°58' E 120°23'0 0.0
2014-Sep-26 11:26N 35°58' E 120°23'0 0.0
2014-Sep-26 10:20N 35°58' E 120°23'0 0.1
2014-Sep-26 09:26N 35°58' E 120°23'0 0.0
2014-Sep-26 08:32N 35°58' E 120°23'0 0.0
2014-Sep-26 07:32N 35°58' E 120°23'0 0.1
2014-Sep-26 06:32N 35°58' E 120°23'0 0.0
2014-Sep-26 05:32N 35°58' E 120°23'0 0.0
2014-Sep-26 04:26N 35°58' E 120°23'0 0.0
2014-Sep-26 03:26N 35°58' E 120°23'0 0.0
2014-Sep-26 01:20N 35°58' E 120°23'0 0.1
2014-Sep-26 00:08N 35°58' E 120°23'0 0.1
2014-Sep-25 23:17N 35°58' E 120°23'0 0.0
2014-Sep-25 22:24N 35°58' E 120°23'0 0.0
2014-Sep-25 21:30N 35°58' E 120°23'0 0.0
2014-Sep-25 20:30N 35°58' E 120°23'0 0.0
2014-Sep-25 19:24N 35°58' E 120°23'0 0.0
2014-Sep-25 18:30N 35°58' E 120°23'7 7.1
2014-Sep-25 17:31N 35°60' E 120°31'30 9.5
2014-Sep-25 14:21N 35°39' E 120°58'810.1
2014-Sep-25 13:32N 35°32' E 121°03'13 9.8
2014-Sep-25 12:11N 35°21' E 121°11'249 6.9
2014-Sep-24 00:13N 31°14' E 121°48'812.1
2014-Sep-23 23:33N 31°20' E 121°41'4 2.9
2014-Sep-23 22:13N 31°22' E 121°38'0 0.0
2014-Sep-23 21:31N 31°22' E 121°38'0 0.0
2014-Sep-23 19:13N 31°22' E 121°38'0 0.0
2014-Sep-23 18:25N 31°22' E 121°38'0 0.1
2014-Sep-23 16:31N 31°22' E 121°38'0 0.0
2014-Sep-23 13:19N 31°22' E 121°38'0 0.1
2014-Sep-23 12:31N 31°22' E 121°38'0 0.0
2014-Sep-23 10:25N 31°22' E 121°38'0 0.0
2014-Sep-23 08:19N 31°22' E 121°38'0 0.0
2014-Sep-23 06:07N 31°22' E 121°38'0 0.1
2014-Sep-23 04:31N 31°22' E 121°38'0 0.0
2014-Sep-23 03:31N 31°22' E 121°38'0 0.0
2014-Sep-23 02:31N 31°22' E 121°38'0 0.1
2014-Sep-23 00:07N 31°22' E 121°38'0 0.0
2014-Sep-22 22:19N 31°22' E 121°38'0 0.0
2014-Sep-22 21:31N 31°22' E 121°38'0 0.1
2014-Sep-22 19:31N 31°22' E 121°38'0 0.0
2014-Sep-22 18:13N 31°22' E 121°38'0 0.0
2014-Sep-22 16:10N 31°22' E 121°38'0 0.0
2014-Sep-22 15:22N 31°22' E 121°38'0 0.0
2014-Sep-22 13:28N 31°22' E 121°38'0 0.1
2014-Sep-22 12:04N 31°22' E 121°38'0 0.1
2014-Sep-22 10:31N 31°22' E 121°38'0 0.0
2014-Sep-22 08:31N 31°22' E 121°38'0 0.0
2014-Sep-22 06:30N 31°22' E 121°38'0 0.1
2014-Sep-22 05:24N 31°22' E 121°38'1 1.6
2014-Sep-22 04:34N 31°22' E 121°36'5 5.4
2014-Sep-22 03:34N 31°22' E 121°30'4 3.0
2014-Sep-22 02:16N 31°20' E 121°33'0 0.0
2014-Sep-22 01:28N 31°20' E 121°33'0 0.0
2014-Sep-22 00:22N 31°20' E 121°33'0 0.0
2014-Sep-21 23:28N 31°20' E 121°33'0 0.0
2014-Sep-21 22:04N 31°20' E 121°33'0 0.0
2014-Sep-21 21:16N 31°20' E 121°33'0 0.0
2014-Sep-21 19:16N 31°20' E 121°33'0 0.0
2014-Sep-21 18:20N 31°20' E 121°33'0 0.0
2014-Sep-21 17:33N 31°20' E 121°33'4 3.9
2014-Sep-21 16:33N 31°22' E 121°30'0 0.0
2014-Sep-21 15:05N 31°22' E 121°30'0 0.0
2014-Sep-21 14:17N 31°22' E 121°30'0 0.0
2014-Sep-21 11:24N 31°22' E 121°30'0 0.0
2014-Sep-21 10:30N 31°22' E 121°30'0 0.0
2014-Sep-21 09:30N 31°22' E 121°30'0 0.0
2014-Sep-21 07:12N 31°22' E 121°30'0 0.0
2014-Sep-21 06:24N 31°22' E 121°30'1 1.7
2014-Sep-21 05:33N 31°23' E 121°31'6 6.5
2014-Sep-21 04:33N 31°22' E 121°38'7 6.9
2014-Sep-21 03:29N 31°17' E 121°45'36 9.1
2014-Sep-20 23:33N 30°54' E 122°16'7 7.5
2014-Sep-20 22:33N 30°46' E 122°18'7 7.0
2014-Sep-20 21:33N 30°40' E 122°15'7 7.3
2014-Sep-20 20:33N 30°33' E 122°12'10 9.1
2014-Sep-20 19:30N 30°31' E 122°01'9 9.3
2014-Sep-20 18:30N 30°26' E 121°52'13 6.6
2014-Sep-20 16:31N 30°13' E 121°50'8 8.2
2014-Sep-20 15:32N 30°05' E 121°54'8 7.9
2014-Sep-20 14:33N 29°59' E 121°59'9 9.0
2014-Sep-20 13:33N 29°55' E 122°08'9 9.5
2014-Sep-20 12:33N 29°46' E 122°04'10 9.9
2014-Sep-20 11:33N 29°36' E 122°05'  
Track history (hours):
 
Tides and Currents Weather Stations Pressure Air Temp Water Temp Dewpoint Dewpoint Depression Visibility Wind Speed Wind Dir Waves Ship Positions

Bao An Cheng 69

Last reported at 2014-Sep-30 11:31 UTC. Time now 2014-Sep-30 11:53 UTC.
Position N 37°38' E 122°24'.

Length 121 m; draft 4.5 m.

MMSI: 412703090.

Date/timePositionNaut miles runAvg speedWind from/ knotsBaromVisibWave heightAir tempDewpointWater temp
2014-Sep-30 11:31N 37°38' E 122°24'9 9.2
2014-Sep-30 10:32N 37°35' E 122°35'10 7.4
2014-Sep-30 09:13N 37°28' E 122°43'6 5.1
2014-Sep-30 08:07N 37°23' E 122°43'3 1.0
2014-Sep-30 05:28N 37°22' E 122°40'0 0.0
2014-Sep-29 22:28N 37°22' E 122°40'0 0.1
2014-Sep-29 20:22N 37°22' E 122°40'0 0.0
2014-Sep-29 18:22N 37°22' E 122°40'0 0.0
2014-Sep-29 17:22N 37°22' E 122°40'0 0.0
2014-Sep-29 16:22N 37°22' E 122°40'0 0.0
2014-Sep-29 15:16N 37°22' E 122°40'0 0.0
2014-Sep-29 07:10N 37°22' E 122°40'0 0.1
2014-Sep-29 06:22N 37°22' E 122°40'0 0.1
2014-Sep-29 05:28N 37°22' E 122°40'0 0.0
2014-Sep-29 00:29N 37°22' E 122°40'0 0.0
2014-Sep-28 23:16N 37°22' E 122°40'0 0.0
2014-Sep-28 22:28N 37°22' E 122°40'0 0.0
2014-Sep-28 21:28N 37°22' E 122°40'0 0.1
2014-Sep-28 20:16N 37°22' E 122°40'0 0.0
2014-Sep-28 19:22N 37°22' E 122°40'0 0.0
2014-Sep-28 18:04N 37°22' E 122°40'0 0.0
2014-Sep-28 17:16N 37°22' E 122°40'0 0.0
2014-Sep-28 16:22N 37°22' E 122°40'0 0.0
2014-Sep-28 15:10N 37°22' E 122°40'0 0.0
2014-Sep-28 14:16N 37°22' E 122°40'0 0.2
2014-Sep-28 13:16N 37°22' E 122°40'0 0.0
2014-Sep-28 12:28N 37°22' E 122°40'0 0.0
2014-Sep-28 10:20N 37°22' E 122°40'7 8.7
2014-Sep-28 09:33N 37°15' E 122°43'1110.5
2014-Sep-28 08:32N 37°05' E 122°43'9 9.3
2014-Sep-28 07:32N 36°56' E 122°40'9 8.8
2014-Sep-28 06:34N 36°48' E 122°35'9 9.1
2014-Sep-28 05:33N 36°43' E 122°25'1110.0
2014-Sep-28 04:26N 36°37' E 122°13'90 9.9
2014-Sep-27 19:17N 35°58' E 120°32'710.0
2014-Sep-27 18:33N 36°00' E 120°24'8 7.9
2014-Sep-27 17:33N 36°01' E 120°14'4 0.2
2014-Sep-26 13:32N 36°02' E 120°19'5 4.1
2014-Sep-26 12:26N 35°58' E 120°23'0 0.0
2014-Sep-26 11:26N 35°58' E 120°23'0 0.0
2014-Sep-26 10:20N 35°58' E 120°23'0 0.1
2014-Sep-26 09:26N 35°58' E 120°23'0 0.0
2014-Sep-26 08:32N 35°58' E 120°23'0 0.0
2014-Sep-26 07:32N 35°58' E 120°23'0 0.1
2014-Sep-26 06:32N 35°58' E 120°23'0 0.0
2014-Sep-26 05:32N 35°58' E 120°23'0 0.0
2014-Sep-26 04:26N 35°58' E 120°23'0 0.0
2014-Sep-26 03:26N 35°58' E 120°23'0 0.0
2014-Sep-26 01:20N 35°58' E 120°23'0 0.1
2014-Sep-26 00:08N 35°58' E 120°23'0 0.1
2014-Sep-25 23:17N 35°58' E 120°23'0 0.0
2014-Sep-25 22:24N 35°58' E 120°23'0 0.0
2014-Sep-25 21:30N 35°58' E 120°23'0 0.0
2014-Sep-25 20:30N 35°58' E 120°23'0 0.0
2014-Sep-25 19:24N 35°58' E 120°23'0 0.0
2014-Sep-25 18:30N 35°58' E 120°23'7 7.1
2014-Sep-25 17:31N 35°60' E 120°31'30 9.5
2014-Sep-25 14:21N 35°39' E 120°58'810.1
2014-Sep-25 13:32N 35°32' E 121°03'13 9.8
2014-Sep-25 12:11N 35°21' E 121°11'249 6.9
2014-Sep-24 00:13N 31°14' E 121°48'812.1
2014-Sep-23 23:33N 31°20' E 121°41'4 2.9
2014-Sep-23 22:13N 31°22' E 121°38'0 0.0
2014-Sep-23 21:31N 31°22' E 121°38'0 0.0
2014-Sep-23 19:13N 31°22' E 121°38'0 0.0
2014-Sep-23 18:25N 31°22' E 121°38'0 0.1
2014-Sep-23 16:31N 31°22' E 121°38'0 0.0
2014-Sep-23 13:19N 31°22' E 121°38'0 0.1
2014-Sep-23 12:31N 31°22' E 121°38'0 0.0
2014-Sep-23 10:25N 31°22' E 121°38'0 0.0
2014-Sep-23 08:19N 31°22' E 121°38'0 0.0
2014-Sep-23 06:07N 31°22' E 121°38'0 0.1
2014-Sep-23 04:31N 31°22' E 121°38'0 0.0
2014-Sep-23 03:31N 31°22' E 121°38'0 0.0
2014-Sep-23 02:31N 31°22' E 121°38'0 0.1
2014-Sep-23 00:07N 31°22' E 121°38'0 0.0
2014-Sep-22 22:19N 31°22' E 121°38'0 0.0
2014-Sep-22 21:31N 31°22' E 121°38'0 0.1
2014-Sep-22 19:31N 31°22' E 121°38'0 0.0
2014-Sep-22 18:13N 31°22' E 121°38'0 0.0
2014-Sep-22 16:10N 31°22' E 121°38'0 0.0
2014-Sep-22 15:22N 31°22' E 121°38'0 0.0
2014-Sep-22 13:28N 31°22' E 121°38'0 0.1
2014-Sep-22 12:04N 31°22' E 121°38'0 0.1
2014-Sep-22 10:31N 31°22' E 121°38'0 0.0
2014-Sep-22 08:31N 31°22' E 121°38'0 0.0
2014-Sep-22 06:30N 31°22' E 121°38'0 0.1
2014-Sep-22 05:24N 31°22' E 121°38'1 1.6
2014-Sep-22 04:34N 31°22' E 121°36'5 5.4
2014-Sep-22 03:34N 31°22' E 121°30'4 3.0
2014-Sep-22 02:16N 31°20' E 121°33'0 0.0
2014-Sep-22 01:28N 31°20' E 121°33'0 0.0
2014-Sep-22 00:22N 31°20' E 121°33'0 0.0
2014-Sep-21 23:28N 31°20' E 121°33'0 0.0
2014-Sep-21 22:04N 31°20' E 121°33'0 0.0
2014-Sep-21 21:16N 31°20' E 121°33'0 0.0
2014-Sep-21 19:16N 31°20' E 121°33'0 0.0
2014-Sep-21 18:20N 31°20' E 121°33'0 0.0
2014-Sep-21 17:33N 31°20' E 121°33'4 3.9
2014-Sep-21 16:33N 31°22' E 121°30'0 0.0
2014-Sep-21 15:05N 31°22' E 121°30'0 0.0
2014-Sep-21 14:17N 31°22' E 121°30'0 0.0
2014-Sep-21 11:24N 31°22' E 121°30'0 0.0
2014-Sep-21 10:30N 31°22' E 121°30'0 0.0
2014-Sep-21 09:30N 31°22' E 121°30'0 0.0
2014-Sep-21 07:12N 31°22' E 121°30'0 0.0
2014-Sep-21 06:24N 31°22' E 121°30'1 1.7
2014-Sep-21 05:33N 31°23' E 121°31'6 6.5
2014-Sep-21 04:33N 31°22' E 121°38'7 6.9
2014-Sep-21 03:29N 31°17' E 121°45'36 9.1
2014-Sep-20 23:33N 30°54' E 122°16'7 7.5
2014-Sep-20 22:33N 30°46' E 122°18'7 7.0
2014-Sep-20 21:33N 30°40' E 122°15'7 7.3
2014-Sep-20 20:33N 30°33' E 122°12'10 9.1
2014-Sep-20 19:30N 30°31' E 122°01'9 9.3
2014-Sep-20 18:30N 30°26' E 121°52'13 6.6
2014-Sep-20 16:31N 30°13' E 121°50'8 8.2
2014-Sep-20 15:32N 30°05' E 121°54'8 7.9
2014-Sep-20 14:33N 29°59' E 121°59'9 9.0
2014-Sep-20 13:33N 29°55' E 122°08'9 9.5
2014-Sep-20 12:33N 29°46' E 122°04'10 9.9
2014-Sep-20 11:33N 29°36' E 122°05'  

Dump ship's entire track history